createdAt,value
2019-02-11T00:00:05.665Z,66.80
2019-02-11T00:02:33.099Z,68.07
2019-02-11T00:05:00.508Z,58.67
2019-02-11T00:07:27.938Z,57.70
2019-02-11T00:09:55.305Z,57.67
2019-02-11T00:12:22.730Z,56.00
2019-02-11T00:14:50.184Z,54.03
2019-02-11T00:17:17.548Z,59.00
2019-02-11T00:19:44.967Z,51.33
2019-02-11T00:22:12.412Z,55.73
2019-02-11T00:24:39.843Z,60.27
2019-02-11T00:27:07.220Z,59.93
2019-02-11T00:29:34.632Z,55.77
2019-02-11T00:32:02.190Z,62.93
2019-02-11T00:34:29.589Z,59.93
2019-02-11T00:36:57.011Z,56.80
2019-02-11T00:39:24.412Z,56.10
2019-02-11T00:41:51.807Z,52.33
2019-02-11T00:44:19.232Z,54.33
2019-02-11T00:46:46.770Z,65.23
2019-02-11T00:49:14.135Z,63.40
2019-02-11T00:51:41.762Z,54.90
2019-02-11T00:54:09.252Z,58.80
2019-02-11T00:56:36.700Z,59.10
2019-02-11T00:59:04.142Z,57.73
2019-02-11T01:01:31.499Z,53.73
2019-02-11T01:03:58.969Z,57.13
2019-02-11T01:06:26.400Z,58.70
2019-02-11T01:08:53.741Z,58.33
2019-02-11T01:11:21.176Z,55.40
2019-02-11T01:13:48.568Z,61.30
2019-02-11T01:16:16.006Z,60.63
2019-02-11T01:18:43.730Z,56.33
2019-02-11T01:21:11.124Z,55.67
2019-02-11T01:23:38.546Z,52.27
2019-02-11T01:26:06.020Z,52.77
2019-02-11T01:28:33.487Z,48.07
2019-02-11T01:31:00.915Z,52.03
2019-02-11T01:33:28.350Z,49.77
2019-02-11T01:35:55.778Z,51.17
2019-02-11T01:38:23.606Z,48.90
2019-02-11T01:40:51.048Z,52.80
2019-02-11T01:43:18.495Z,54.07
2019-02-11T01:45:45.960Z,59.40
2019-02-11T01:48:13.448Z,59.97
2019-02-11T01:50:40.903Z,59.23
2019-02-11T01:53:09.008Z,54.23
2019-02-11T01:55:36.648Z,59.70
2019-02-11T01:58:04.420Z,44.00
2019-02-11T02:00:32.243Z,54.00
2019-02-11T02:02:59.759Z,49.70
2019-02-11T02:05:29.699Z,48.80
2019-02-11T02:07:57.144Z,51.10
2019-02-11T02:10:24.613Z,46.80
2019-02-11T02:12:52.014Z,53.43
2019-02-11T02:15:19.388Z,51.57
2019-02-11T02:17:47.079Z,54.53
2019-02-11T02:20:14.546Z,52.60
2019-02-11T02:22:42.083Z,55.80
2019-02-11T02:25:09.665Z,47.27
2019-02-11T02:27:37.096Z,48.67
2019-02-11T02:30:05.465Z,55.67
2019-02-11T02:32:32.894Z,45.27
2019-02-11T02:35:00.568Z,51.43
2019-02-11T02:37:27.984Z,47.33
2019-02-11T02:39:55.432Z,55.83
2019-02-11T02:42:23.598Z,51.77
2019-02-11T02:44:51.278Z,52.10
2019-02-11T02:47:18.911Z,53.03
2019-02-11T02:49:46.589Z,55.20
2019-02-11T02:52:13.976Z,55.43
2019-02-11T02:54:41.840Z,56.50
2019-02-11T02:57:09.355Z,56.30
2019-02-11T02:59:36.819Z,59.03
2019-02-11T03:02:04.988Z,58.07
2019-02-11T03:04:32.456Z,54.20
2019-02-11T03:06:59.904Z,59.00
2019-02-11T03:09:27.290Z,62.10
2019-02-11T03:11:54.809Z,63.77
2019-02-11T03:14:22.294Z,60.50
2019-02-11T03:16:49.669Z,57.37
2019-02-11T03:19:17.113Z,53.83
2019-02-11T03:21:44.687Z,60.53
2019-02-11T03:24:12.330Z,60.37
2019-02-11T03:26:39.804Z,58.47
2019-02-11T03:29:07.221Z,62.97
2019-02-11T03:31:34.778Z,57.83
2019-02-11T03:34:02.213Z,67.27
2019-02-11T03:36:29.636Z,61.93
2019-02-11T03:38:57.026Z,64.30
2019-02-11T03:41:24.503Z,63.87
2019-02-11T03:43:52.039Z,62.83
2019-02-11T03:46:19.478Z,58.40
2019-02-11T03:48:46.960Z,59.23
2019-02-11T03:51:14.666Z,59.87
2019-02-11T03:53:42.256Z,56.50
2019-02-11T03:56:09.799Z,53.43
2019-02-11T03:58:37.351Z,55.07
2019-02-11T04:01:04.741Z,53.43
2019-02-11T04:03:32.154Z,44.47
2019-02-11T04:05:59.590Z,52.83
2019-02-11T04:08:27.244Z,54.80
2019-02-11T04:10:54.913Z,57.30
2019-02-11T04:13:22.283Z,53.13
2019-02-11T04:15:49.743Z,55.70
2019-02-11T04:18:17.212Z,54.57
2019-02-11T04:20:44.640Z,53.73
2019-02-11T04:23:12.068Z,53.57
2019-02-11T04:25:39.536Z,53.20
2019-02-11T04:28:06.915Z,53.93
2019-02-11T04:30:34.336Z,54.33
2019-02-11T04:33:01.751Z,55.60
2019-02-11T04:35:29.246Z,52.30
2019-02-11T04:37:56.715Z,53.27
2019-02-11T04:40:24.180Z,55.60
2019-02-11T04:42:51.635Z,51.47
2019-02-11T04:45:19.089Z,59.93
2019-02-11T04:47:46.500Z,51.23
2019-02-11T04:50:13.941Z,56.63
2019-02-11T04:52:41.397Z,53.40
2019-02-11T04:55:08.883Z,51.67
2019-02-11T04:57:36.451Z,53.47
2019-02-11T05:00:05.390Z,59.83
2019-02-11T05:02:32.799Z,52.70
2019-02-11T05:05:00.239Z,59.87
2019-02-11T05:07:27.682Z,47.37
2019-02-11T05:09:55.043Z,54.80
2019-02-11T05:12:22.483Z,51.33
2019-02-11T05:14:50.052Z,66.07
2019-02-11T05:17:17.509Z,60.90
2019-02-11T05:19:44.923Z,64.30
2019-02-11T05:22:12.343Z,57.70
2019-02-11T05:24:39.788Z,64.50
2019-02-11T05:27:07.219Z,65.40
2019-02-11T05:29:34.617Z,62.07
2019-02-11T05:32:02.036Z,61.77
2019-02-11T05:34:29.489Z,66.77
2019-02-11T05:36:56.920Z,68.07
2019-02-11T05:39:24.367Z,66.27
2019-02-11T05:41:51.857Z,69.43
2019-02-11T05:44:19.249Z,72.10
2019-02-11T05:46:46.738Z,72.00
2019-02-11T05:49:14.213Z,67.50
2019-02-11T05:51:41.627Z,75.30
2019-02-11T05:54:09.052Z,67.47
2019-02-11T05:56:36.489Z,72.93
2019-02-11T05:59:04.227Z,61.30
2019-02-11T06:01:31.717Z,73.33
2019-02-11T06:03:59.123Z,61.13
2019-02-11T06:06:26.563Z,75.20
2019-02-11T06:08:54.024Z,85.67
2019-02-11T06:11:21.374Z,72.97
2019-02-11T06:13:48.862Z,79.80
2019-02-11T06:16:16.309Z,68.63
2019-02-11T06:18:43.804Z,86.13
2019-02-11T06:21:11.236Z,75.87
2019-02-11T06:23:38.696Z,72.63
2019-02-11T06:26:06.126Z,76.47
2019-02-11T06:28:33.509Z,81.87
2019-02-11T06:31:00.978Z,79.63
2019-02-11T06:33:28.400Z,66.57
2019-02-11T06:35:55.828Z,66.87
2019-02-11T06:38:23.248Z,63.83
2019-02-11T06:40:50.742Z,67.87
2019-02-11T06:43:18.172Z,64.50
2019-02-11T06:45:45.600Z,72.87
2019-02-11T06:48:13.050Z,73.17
2019-02-11T06:50:40.481Z,86.90
2019-02-11T06:53:08.018Z,111.33
2019-02-11T06:55:35.476Z,109.10
2019-02-11T06:58:02.893Z,111.07
2019-02-11T07:00:30.496Z,109.60
2019-02-11T07:02:57.974Z,101.60
2019-02-11T07:05:25.370Z,114.23
2019-02-11T07:07:52.817Z,109.17
2019-02-11T07:10:20.249Z,82.60
2019-02-11T07:12:47.629Z,107.20
2019-02-11T07:15:21.916Z,89.97
2019-02-11T07:17:44.467Z,89.57
2019-02-11T07:20:11.884Z,73.67
2019-02-11T07:22:39.314Z,71.57
2019-02-11T07:25:07.413Z,51.93
2019-02-11T07:27:34.863Z,63.90
2019-02-11T07:30:02.433Z,62.03
2019-02-11T07:32:29.887Z,59.63
2019-02-11T07:34:57.245Z,53.43
2019-02-11T07:37:24.677Z,56.27
2019-02-11T07:39:52.073Z,51.17
2019-02-11T07:42:25.564Z,50.63
2019-02-11T07:44:58.266Z,40.30
2019-02-11T07:47:25.708Z,46.97
2019-02-11T07:49:53.153Z,41.80
2019-02-11T07:52:26.642Z,41.53
2019-02-11T07:54:49.948Z,39.73
2019-02-11T07:57:17.326Z,43.23
2019-02-11T07:59:44.790Z,44.53
2019-02-11T08:02:12.299Z,42.47
2019-02-11T08:04:39.731Z,57.33
2019-02-11T08:07:07.217Z,54.27
2019-02-11T08:09:34.697Z,49.27
2019-02-11T08:12:02.152Z,42.97
2019-02-11T08:14:29.909Z,47.43
2019-02-11T08:16:57.275Z,58.80
2019-02-11T08:19:26.527Z,55.17
2019-02-11T08:21:53.981Z,39.47
2019-02-11T08:24:21.382Z,45.07
2019-02-11T08:26:48.809Z,41.33
2019-02-11T08:29:16.204Z,35.43
2019-02-11T08:31:43.657Z,44.07
2019-02-11T08:34:11.084Z,47.20
2019-02-11T08:36:38.444Z,56.47
2019-02-11T08:39:06.674Z,46.73
2019-02-11T08:41:34.199Z,39.67
2019-02-11T08:44:01.861Z,39.30
2019-02-11T08:46:29.284Z,49.63
2019-02-11T08:48:56.723Z,50.23
2019-02-11T08:51:26.088Z,45.40
2019-02-11T08:53:53.633Z,52.67
2019-02-11T08:56:21.060Z,59.80
2019-02-11T08:58:48.433Z,45.43
2019-02-11T09:01:15.870Z,57.10
2019-02-11T09:03:43.546Z,50.93
2019-02-11T09:06:11.056Z,68.47
2019-02-11T09:08:38.514Z,42.87
2019-02-11T09:11:06.007Z,52.30
2019-02-11T09:13:33.375Z,47.07
2019-02-11T09:16:00.949Z,55.80
2019-02-11T09:18:28.388Z,47.50
2019-02-11T09:20:55.809Z,41.37
2019-02-11T09:23:23.334Z,41.87
2019-02-11T09:25:50.805Z,40.13
2019-02-11T09:28:18.380Z,45.63
2019-02-11T09:30:45.748Z,33.20
2019-02-11T09:33:13.183Z,33.70
2019-02-11T09:35:41.316Z,31.90
2019-02-11T09:38:08.682Z,34.10
2019-02-11T09:40:36.169Z,42.70
2019-02-11T09:43:03.772Z,35.33
2019-02-11T09:45:31.238Z,40.70
2019-02-11T09:47:58.776Z,39.20
2019-02-11T09:50:38.745Z,37.93
2019-02-11T09:53:06.611Z,27.03
2019-02-11T09:55:34.268Z,36.50
2019-02-11T09:58:01.714Z,39.20
2019-02-11T10:00:29.599Z,34.93
2019-02-11T10:02:57.133Z,31.90
2019-02-11T10:05:24.674Z,36.93
2019-02-11T10:07:52.282Z,38.03
2019-02-11T10:10:19.735Z,35.77
2019-02-11T10:12:47.303Z,34.80
2019-02-11T10:15:15.210Z,35.00
2019-02-11T10:17:42.831Z,35.73
2019-02-11T10:20:10.470Z,37.50
2019-02-11T10:22:38.031Z,28.77
2019-02-11T10:25:08.638Z,39.23
2019-02-11T10:27:36.139Z,35.47
2019-02-11T10:30:04.526Z,45.30
2019-02-11T10:32:31.958Z,40.87
2019-02-11T10:34:59.453Z,35.20
2019-02-11T10:37:26.946Z,37.43
2019-02-11T10:39:54.442Z,36.77
2019-02-11T10:42:21.886Z,42.13
2019-02-11T10:44:49.321Z,41.70
2019-02-11T10:47:16.878Z,41.80
2019-02-11T10:49:44.554Z,41.77
2019-02-11T10:52:12.363Z,48.30
2019-02-11T10:54:39.867Z,54.17
2019-02-11T10:57:07.343Z,41.90
2019-02-11T10:59:34.848Z,45.17
2019-02-11T11:02:02.392Z,44.00
2019-02-11T11:04:29.848Z,43.10
2019-02-11T11:06:57.365Z,42.57
2019-02-11T11:09:24.853Z,40.80
2019-02-11T11:11:52.262Z,39.63
2019-02-11T11:14:19.720Z,41.40
2019-02-11T11:16:47.154Z,47.23
2019-02-11T11:19:14.569Z,44.43
2019-02-11T11:21:42.285Z,44.73
2019-02-11T11:24:09.753Z,46.37
2019-02-11T11:26:37.265Z,52.17
2019-02-11T11:29:05.985Z,51.63
2019-02-11T11:31:33.644Z,52.67
2019-02-11T11:34:01.114Z,59.20
2019-02-11T11:36:28.609Z,55.20
2019-02-11T11:38:56.072Z,56.27
2019-02-11T11:41:24.429Z,57.70
2019-02-11T11:43:51.884Z,68.10
2019-02-11T11:46:19.418Z,77.00
2019-02-11T11:48:46.891Z,65.73
2019-02-11T11:51:14.669Z,64.43
2019-02-11T11:53:42.096Z,65.27
2019-02-11T11:56:09.524Z,66.20
2019-02-11T11:58:37.222Z,71.60
2019-02-11T12:01:05.079Z,58.17
2019-02-11T12:03:32.457Z,52.10
2019-02-11T12:05:59.893Z,56.83
2019-02-11T12:08:27.314Z,56.63
2019-02-11T12:10:54.701Z,60.33
2019-02-11T12:13:23.726Z,55.07
2019-02-11T12:15:51.506Z,53.33
2019-02-11T12:18:18.977Z,58.27
2019-02-11T12:20:46.453Z,53.37
2019-02-11T12:23:13.971Z,49.17
2019-02-11T12:25:41.349Z,41.20
2019-02-11T12:28:08.864Z,41.50
2019-02-11T12:30:36.320Z,50.47
2019-02-11T12:33:03.927Z,46.87
2019-02-11T12:35:31.445Z,46.03
2019-02-11T12:37:58.976Z,48.50
2019-02-11T12:40:26.583Z,57.00
2019-02-11T12:42:54.512Z,60.57
2019-02-11T12:45:22.636Z,36.20
2019-02-11T12:47:50.224Z,45.03
2019-02-11T12:50:18.305Z,50.17
2019-02-11T12:52:46.027Z,55.43
2019-02-11T12:55:13.971Z,44.00
2019-02-11T12:57:41.612Z,39.07
2019-02-11T13:00:17.013Z,41.87
2019-02-11T13:02:44.213Z,43.87
2019-02-11T13:05:12.203Z,34.70
2019-02-11T13:07:39.820Z,39.33
2019-02-11T13:10:10.176Z,40.00
2019-02-11T13:12:37.735Z,37.83
2019-02-11T13:15:06.011Z,37.03
2019-02-11T13:17:34.963Z,29.60
2019-02-11T13:20:08.953Z,38.60
2019-02-11T13:22:32.513Z,38.63
2019-02-11T13:24:59.989Z,38.67
2019-02-11T13:27:27.491Z,37.77
2019-02-11T13:29:55.079Z,35.87
2019-02-11T13:32:22.492Z,39.80
2019-02-11T13:34:49.928Z,36.50
2019-02-11T13:37:17.395Z,33.40
2019-02-11T13:39:44.775Z,46.47
2019-02-11T13:42:12.365Z,35.03
2019-02-11T13:44:39.944Z,44.67
2019-02-11T13:47:07.639Z,37.97
2019-02-11T13:49:35.099Z,32.77
2019-02-11T13:52:02.726Z,35.93
2019-02-11T13:54:30.279Z,34.67
2019-02-11T13:56:57.758Z,34.60
2019-02-11T13:59:25.201Z,36.53
2019-02-11T14:01:52.815Z,33.93
2019-02-11T14:04:20.329Z,30.13
2019-02-11T14:06:47.949Z,37.57
2019-02-11T14:09:15.526Z,29.97
2019-02-11T14:11:42.913Z,35.33
2019-02-11T14:14:10.403Z,30.97
2019-02-11T14:16:38.031Z,34.43
2019-02-11T14:19:05.503Z,38.00
2019-02-11T14:21:33.026Z,36.23
2019-02-11T14:24:00.492Z,30.13
2019-02-11T14:26:27.940Z,35.93
2019-02-11T14:28:55.417Z,36.03
2019-02-11T14:31:22.860Z,31.17
2019-02-11T14:33:50.266Z,29.83
2019-02-11T14:36:17.728Z,29.43
2019-02-11T14:38:45.212Z,24.60
2019-02-11T14:41:12.746Z,26.43
2019-02-11T14:43:40.267Z,33.23
2019-02-11T14:46:07.819Z,36.03
2019-02-11T14:48:35.274Z,27.03
2019-02-11T14:51:02.724Z,25.73
2019-02-11T14:53:30.304Z,27.33
2019-02-11T14:55:57.747Z,26.33
2019-02-11T14:58:25.132Z,29.93
2019-02-11T15:00:52.608Z,28.47
2019-02-11T15:03:20.041Z,29.57
2019-02-11T15:05:47.468Z,33.03
2019-02-11T15:08:14.865Z,34.57
2019-02-11T15:10:42.273Z,30.47
2019-02-11T15:13:09.733Z,26.63
2019-02-11T15:15:37.879Z,36.53
2019-02-11T15:18:05.432Z,27.53
2019-02-11T15:20:32.858Z,36.00
2019-02-11T15:23:00.343Z,33.30
2019-02-11T15:25:27.818Z,31.20
2019-02-11T15:27:55.249Z,20.93
2019-02-11T15:30:22.727Z,15.37
2019-02-11T15:32:50.209Z,23.63
2019-02-11T15:35:17.871Z,18.63
2019-02-11T15:37:45.278Z,17.80
2019-02-11T15:40:14.754Z,12.83
2019-02-11T15:42:42.195Z,12.93
2019-02-11T15:45:11.023Z,10.00
2019-02-11T15:47:38.389Z,6.87
2019-02-11T15:50:07.169Z,6.77
2019-02-11T15:52:35.063Z,4.73
2019-02-11T15:55:03.981Z,7.20
2019-02-11T15:57:31.427Z,5.33
2019-02-11T15:59:58.841Z,4.10
2019-02-11T16:02:26.212Z,7.17
2019-02-11T16:05:01.838Z,6.00
2019-02-11T16:07:23.041Z,8.10
2019-02-11T16:09:50.508Z,14.73
2019-02-11T16:12:18.167Z,8.30
2019-02-11T16:14:45.613Z,6.73
2019-02-11T16:17:13.004Z,17.80
2019-02-11T16:19:40.485Z,19.80
2019-02-11T16:22:08.042Z,27.80
2019-02-11T16:24:35.424Z,31.77
2019-02-11T16:27:02.866Z,28.87
2019-02-11T16:29:30.298Z,35.70
2019-02-11T16:32:00.759Z,34.73
2019-02-11T16:34:26.977Z,29.17
2019-02-11T16:36:54.414Z,29.07
2019-02-11T16:39:21.768Z,34.03
2019-02-11T16:41:49.235Z,26.00
2019-02-11T16:44:16.684Z,32.50
2019-02-11T16:46:44.105Z,34.43
2019-02-11T16:49:11.559Z,33.53
2019-02-11T16:51:39.396Z,34.20
2019-02-11T16:54:06.792Z,26.50
2019-02-11T16:56:34.362Z,28.90
2019-02-11T16:59:01.735Z,28.97
2019-02-11T17:01:29.268Z,30.60
2019-02-11T17:03:56.690Z,30.63
2019-02-11T17:06:24.123Z,33.03
2019-02-11T17:08:51.586Z,30.57
2019-02-11T17:11:19.043Z,30.30
2019-02-11T17:13:46.476Z,37.27
2019-02-11T17:16:13.999Z,34.80
2019-02-11T17:18:41.434Z,34.00
2019-02-11T17:21:08.890Z,31.70
2019-02-11T17:23:36.430Z,32.13
2019-02-11T17:26:03.900Z,30.57
2019-02-11T17:28:31.350Z,32.80
2019-02-11T17:30:59.052Z,27.40
2019-02-11T17:33:26.504Z,27.43
2019-02-11T17:35:53.955Z,29.50
2019-02-11T17:38:21.750Z,29.40
2019-02-11T17:40:49.282Z,30.97
2019-02-11T17:43:16.826Z,23.80
2019-02-11T17:45:44.339Z,26.17
2019-02-11T17:48:11.808Z,31.30
2019-02-11T17:50:39.441Z,29.03
2019-02-11T17:53:08.298Z,29.37
2019-02-11T17:55:35.744Z,31.23
2019-02-11T17:58:03.731Z,31.77
2019-02-11T18:00:36.296Z,25.33
2019-02-11T18:03:03.937Z,30.93
2019-02-11T18:05:31.354Z,25.77
2019-02-11T18:07:58.895Z,27.47
2019-02-11T18:10:26.366Z,32.67
2019-02-11T18:12:53.895Z,28.47
2019-02-11T18:15:21.348Z,33.20
2019-02-11T18:17:49.048Z,31.10
2019-02-11T18:20:16.900Z,33.07
2019-02-11T18:22:44.445Z,31.40
2019-02-11T18:25:11.856Z,33.37
2019-02-11T18:27:39.369Z,30.73
2019-02-11T18:30:07.971Z,31.27
2019-02-11T18:32:35.417Z,28.07
2019-02-11T18:35:03.482Z,26.90
2019-02-11T18:37:30.901Z,30.43
2019-02-11T18:39:58.381Z,34.07
2019-02-11T18:42:26.120Z,28.70
2019-02-11T18:44:53.752Z,31.70
2019-02-11T18:47:21.324Z,35.83
2019-02-11T18:49:48.888Z,33.33
2019-02-11T18:52:16.883Z,32.47
2019-02-11T18:54:44.301Z,37.93
2019-02-11T18:57:11.792Z,38.40
2019-02-11T18:59:39.271Z,41.10
2019-02-11T19:02:06.796Z,43.37
2019-02-11T19:04:34.260Z,36.77
2019-02-11T19:07:01.690Z,37.70
2019-02-11T19:09:29.246Z,33.80
2019-02-11T19:11:56.608Z,29.37
2019-02-11T19:14:24.252Z,31.87
2019-02-11T19:16:51.956Z,35.53
2019-02-11T19:19:19.390Z,32.53
2019-02-11T19:21:47.106Z,34.40
2019-02-11T19:24:14.926Z,34.13
2019-02-11T19:26:42.987Z,38.97
2019-02-11T19:29:10.540Z,45.97
2019-02-11T19:31:38.287Z,38.83
2019-02-11T19:34:05.759Z,40.17
2019-02-11T19:36:33.201Z,37.90
2019-02-11T19:39:00.923Z,48.60
2019-02-11T19:41:28.583Z,30.77
2019-02-11T19:43:56.756Z,24.70
2019-02-11T19:46:24.557Z,28.23
2019-02-11T19:48:52.362Z,28.13
2019-02-11T19:51:20.085Z,26.13
2019-02-11T19:53:47.899Z,26.83
2019-02-11T19:56:16.353Z,32.63
2019-02-11T19:58:44.391Z,30.63
2019-02-11T20:01:12.028Z,24.67
2019-02-11T20:03:42.371Z,32.20
2019-02-11T20:06:11.539Z,28.17
2019-02-11T20:08:39.422Z,28.00
2019-02-11T20:11:07.029Z,22.83
2019-02-11T20:13:34.461Z,27.90
2019-02-11T20:16:02.003Z,24.03
2019-02-11T20:18:29.882Z,22.97
2019-02-11T20:20:57.295Z,23.67
2019-02-11T20:23:24.813Z,19.77
2019-02-11T20:25:52.788Z,21.03
2019-02-11T20:28:20.207Z,25.93
2019-02-11T20:30:47.765Z,21.10
2019-02-11T20:33:15.207Z,20.20
2019-02-11T20:35:43.821Z,28.70
2019-02-11T20:38:11.862Z,27.10
2019-02-11T20:40:39.293Z,26.67
2019-02-11T20:43:06.765Z,27.00
2019-02-11T20:45:34.204Z,29.77
2019-02-11T20:48:01.597Z,24.10
2019-02-11T20:50:29.037Z,31.07
2019-02-11T20:52:56.562Z,34.63
2019-02-11T20:55:24.019Z,35.83
2019-02-11T20:57:52.934Z,34.60
2019-02-11T21:00:21.837Z,27.00
2019-02-11T21:02:49.196Z,30.93
2019-02-11T21:05:16.845Z,23.77
2019-02-11T21:07:44.325Z,18.23
2019-02-11T21:10:12.652Z,26.37
2019-02-11T21:12:40.107Z,31.30
2019-02-11T21:15:09.230Z,26.07
2019-02-11T21:17:36.681Z,20.73
2019-02-11T21:20:07.994Z,22.40
2019-02-11T21:22:35.492Z,23.87
2019-02-11T21:25:03.136Z,28.60
2019-02-11T21:27:30.581Z,24.37
2019-02-11T21:29:57.995Z,26.33
2019-02-11T21:32:25.531Z,21.13
2019-02-11T21:34:53.052Z,24.37
2019-02-11T21:37:20.477Z,24.90
2019-02-11T21:39:47.953Z,23.20
2019-02-11T21:42:15.289Z,32.00
2019-02-11T21:44:42.833Z,39.57
2019-02-11T21:47:10.253Z,21.47
2019-02-11T21:49:37.639Z,19.57
2019-02-11T21:52:05.081Z,12.63
2019-02-11T21:54:32.615Z,14.30
2019-02-11T21:56:59.973Z,13.60
2019-02-11T21:59:27.389Z,8.60
2019-02-11T22:01:54.813Z,3.50
2019-02-11T22:04:22.238Z,2.77
2019-02-11T22:06:49.662Z,2.30
2019-02-11T22:09:17.087Z,3.17
2019-02-11T22:11:44.551Z,3.77
2019-02-11T22:14:12.442Z,5.70
2019-02-11T22:16:39.877Z,3.73
2019-02-11T22:19:07.310Z,4.67
2019-02-11T22:21:34.750Z,3.67
2019-02-11T22:24:02.184Z,2.40
2019-02-11T22:26:29.563Z,3.13
2019-02-11T22:28:57.004Z,1.87
2019-02-11T22:31:24.829Z,3.10
2019-02-11T22:33:52.505Z,0.87
2019-02-11T22:36:19.911Z,1.07
2019-02-11T22:38:47.266Z,1.10
2019-02-11T22:41:14.695Z,1.83
2019-02-11T22:43:43.426Z,1.33
2019-02-11T22:46:10.768Z,1.63
2019-02-11T22:48:38.241Z,2.90
2019-02-11T22:51:05.728Z,2.37
2019-02-11T22:53:33.159Z,1.10
2019-02-11T22:56:00.623Z,1.30
2019-02-11T22:58:28.035Z,1.23
2019-02-11T23:01:05.663Z,1.53
2019-02-11T23:03:34.878Z,1.13
2019-02-11T23:06:02.756Z,2.70
2019-02-11T23:08:30.183Z,1.47
2019-02-11T23:10:57.569Z,1.97
2019-02-11T23:13:25.031Z,1.83
2019-02-11T23:15:52.593Z,1.30
2019-02-11T23:18:19.960Z,1.40
2019-02-11T23:20:52.067Z,1.50
2019-02-11T23:23:16.779Z,2.00
2019-02-11T23:25:44.181Z,0.53
2019-02-11T23:28:11.557Z,1.00
2019-02-11T23:30:39.251Z,1.10
2019-02-11T23:33:06.805Z,0.80
2019-02-11T23:35:34.411Z,0.60
2019-02-11T23:38:01.885Z,0.50
2019-02-11T23:40:29.409Z,0.60
2019-02-11T23:42:56.791Z,0.50
2019-02-11T23:45:24.244Z,2.03
2019-02-11T23:47:51.691Z,0.60
2019-02-11T23:50:19.061Z,1.90
2019-02-11T23:52:46.505Z,0.60
2019-02-11T23:55:13.950Z,0.40
2019-02-11T23:57:41.423Z,0.90
